createdAt,value
2023-05-10T00:01:19.653Z,100200.03
2023-05-10T00:03:46.857Z,100200.22
2023-05-10T00:06:14.122Z,100196.94
2023-05-10T00:08:41.281Z,100198.94
2023-05-10T00:11:08.635Z,100189.19
2023-05-10T00:13:35.786Z,100190.03
2023-05-10T00:16:03.070Z,100194.44
2023-05-10T00:18:30.323Z,100189.44
2023-05-10T00:20:57.520Z,100180.22
2023-05-10T00:23:24.668Z,100174.91
2023-05-10T00:25:52.110Z,100179.06
2023-05-10T00:28:19.308Z,100189.38
2023-05-10T00:30:46.464Z,100176.19
2023-05-10T00:33:13.685Z,100174.38
2023-05-10T00:35:41.269Z,100176.34
2023-05-10T00:38:08.455Z,100176.25
2023-05-10T00:40:38.090Z,100173.75
2023-05-10T00:43:06.026Z,100174.47
2023-05-10T00:45:37.259Z,100166.03
2023-05-10T00:48:05.480Z,100168.75
2023-05-10T00:50:34.554Z,100170.97
2023-05-10T00:53:03.168Z,100170.59
2023-05-10T00:55:31.655Z,100169.66
2023-05-10T00:57:58.994Z,100168.50
2023-05-10T01:00:26.687Z,100171.25
2023-05-10T01:02:56.913Z,100173.44
2023-05-10T01:05:24.133Z,100165.97
2023-05-10T01:07:51.934Z,100173.44
2023-05-10T01:10:19.475Z,100183.19
2023-05-10T01:12:48.659Z,100177.25
2023-05-10T01:15:18.988Z,100171.69
2023-05-10T01:17:49.804Z,100170.09
2023-05-10T01:20:18.529Z,100160.91
2023-05-10T01:23:42.623Z,100170.34
2023-05-10T01:26:40.511Z,100161.63
2023-05-10T01:29:07.599Z,100164.19
2023-05-10T01:32:17.133Z,100177.75
2023-05-10T01:35:31.302Z,100166.19
2023-05-10T01:38:28.370Z,100175.34
2023-05-10T01:41:18.176Z,100170.94
2023-05-10T01:44:21.467Z,100160.97
2023-05-10T01:47:21.204Z,100164.50
2023-05-10T01:49:56.200Z,100163.28
2023-05-10T01:52:42.948Z,100166.00
2023-05-10T01:55:15.494Z,100161.09
2023-05-10T01:57:45.824Z,100162.91
2023-05-10T02:00:16.143Z,100161.91
2023-05-10T02:02:48.751Z,100158.97
2023-05-10T02:05:18.765Z,100157.50
2023-05-10T02:07:47.160Z,100155.06
2023-05-10T02:10:16.758Z,100160.22
2023-05-10T02:12:48.440Z,100157.56
2023-05-10T02:15:22.997Z,100157.94
2023-05-10T02:17:51.084Z,100154.34
2023-05-10T02:20:20.370Z,100158.09
2023-05-10T02:22:52.613Z,100152.78
2023-05-10T02:25:23.498Z,100152.53
2023-05-10T02:27:55.212Z,100154.97
2023-05-10T02:30:24.869Z,100154.56
2023-05-10T02:32:53.279Z,100159.31
2023-05-10T02:35:21.942Z,100152.38
2023-05-10T02:37:50.018Z,100154.06
2023-05-10T02:40:19.210Z,100163.06
2023-05-10T02:42:51.480Z,100154.97
2023-05-10T02:45:24.503Z,100155.41
2023-05-10T02:47:51.970Z,100153.38
2023-05-10T02:50:20.890Z,100148.13
2023-05-10T02:52:55.137Z,100140.38
2023-05-10T02:55:33.309Z,100153.88
2023-05-10T02:58:03.214Z,100148.72
2023-05-10T03:00:30.725Z,100146.38
2023-05-10T03:02:58.209Z,100137.50
2023-05-10T03:05:25.787Z,100148.31
2023-05-10T03:07:54.409Z,100142.28
2023-05-10T03:10:29.451Z,100139.56
2023-05-10T03:13:33.710Z,100146.53
2023-05-10T03:16:10.980Z,100144.13
2023-05-10T03:19:28.514Z,100151.00
2023-05-10T03:22:04.073Z,100148.88
2023-05-10T03:24:34.678Z,100143.69
2023-05-10T03:27:05.152Z,100145.31
2023-05-10T03:29:33.994Z,100149.03
2023-05-10T03:32:01.739Z,100146.03
2023-05-10T03:34:32.322Z,100143.66
2023-05-10T03:36:59.629Z,100136.56
2023-05-10T03:39:26.898Z,100145.03
2023-05-10T03:41:54.097Z,100145.59
2023-05-10T03:44:21.385Z,100147.19
2023-05-10T03:46:48.916Z,100152.84
2023-05-10T03:49:16.420Z,100144.13
2023-05-10T03:51:43.602Z,100154.66
2023-05-10T03:54:10.773Z,100142.56
2023-05-10T03:56:37.903Z,100149.75
2023-05-10T03:59:08.303Z,100149.16
2023-05-10T04:01:36.148Z,100145.47
2023-05-10T04:04:03.582Z,100142.44
2023-05-10T04:06:30.802Z,100153.16
2023-05-10T04:09:00.950Z,100149.84
2023-05-10T04:11:28.874Z,100144.25
2023-05-10T04:13:56.026Z,100149.44
2023-05-10T04:16:23.236Z,100153.75
2023-05-10T04:18:50.446Z,100138.75
2023-05-10T04:21:17.647Z,100139.38
2023-05-10T04:23:44.896Z,100129.78
2023-05-10T04:26:12.292Z,100136.31
2023-05-10T04:28:39.738Z,100135.25
2023-05-10T04:31:10.385Z,100140.75
2023-05-10T04:33:38.115Z,100135.34
2023-05-10T04:36:06.051Z,100145.78
2023-05-10T04:38:33.368Z,100130.16
2023-05-10T04:41:08.714Z,100137.50
2023-05-10T04:43:37.132Z,100136.16
2023-05-10T04:46:06.075Z,100130.38
2023-05-10T04:48:33.290Z,100142.69
2023-05-10T04:51:00.614Z,100138.84
2023-05-10T04:53:27.759Z,100138.06
2023-05-10T04:55:54.929Z,100141.44
2023-05-10T04:58:22.338Z,100146.56
2023-05-10T05:00:49.598Z,100155.69
2023-05-10T05:03:16.864Z,100147.69
2023-05-10T05:05:45.774Z,100154.41
2023-05-10T05:08:13.713Z,100154.41
2023-05-10T05:10:41.197Z,100149.16
2023-05-10T05:13:08.378Z,100155.72
2023-05-10T05:15:35.590Z,100156.63
2023-05-10T05:18:02.807Z,100159.22
2023-05-10T05:20:36.327Z,100156.63
2023-05-10T05:23:03.510Z,100161.84
2023-05-10T05:25:30.790Z,100170.59
2023-05-10T05:27:58.001Z,100168.72
2023-05-10T05:30:25.244Z,100175.78
2023-05-10T05:32:52.442Z,100171.28
2023-05-10T05:35:19.720Z,100176.81
2023-05-10T05:37:46.895Z,100176.09
2023-05-10T05:40:15.033Z,100188.81
2023-05-10T05:42:42.385Z,100184.25
2023-05-10T05:45:13.860Z,100176.34
2023-05-10T05:47:41.480Z,100186.59
2023-05-10T05:50:09.294Z,100181.47
2023-05-10T05:52:37.002Z,100193.44
2023-05-10T05:55:04.636Z,100187.16
2023-05-10T05:57:32.047Z,100187.16
2023-05-10T05:59:59.290Z,100184.97
2023-05-10T06:02:26.723Z,100195.97
2023-05-10T06:04:53.925Z,100186.41
2023-05-10T06:07:21.290Z,100187.00
2023-05-10T06:09:48.498Z,100195.75
2023-05-10T06:12:15.672Z,100191.69
2023-05-10T06:14:42.873Z,100200.69
2023-05-10T06:17:10.115Z,100202.09
2023-05-10T06:19:37.759Z,100201.69
2023-05-10T06:22:05.035Z,100200.97
2023-05-10T06:24:32.227Z,100204.53
2023-05-10T06:27:01.116Z,100209.06
2023-05-10T06:29:28.356Z,100213.16
2023-05-10T06:31:55.701Z,100210.94
2023-05-10T06:34:23.039Z,100210.06
2023-05-10T06:36:52.920Z,100202.88
2023-05-10T06:39:20.077Z,100206.28
2023-05-10T06:41:47.271Z,100209.81
2023-05-10T06:44:14.482Z,100213.13
2023-05-10T06:46:42.692Z,100222.31
2023-05-10T06:49:10.159Z,100216.69
2023-05-10T06:51:37.345Z,100223.34
2023-05-10T06:54:04.521Z,100219.78
2023-05-10T06:56:31.681Z,100227.31
2023-05-10T06:58:58.934Z,100217.69
2023-05-10T07:01:26.188Z,100224.03
2023-05-10T07:03:53.467Z,100226.22
2023-05-10T07:06:32.398Z,100231.88
2023-05-10T07:09:01.549Z,100229.72
2023-05-10T07:11:28.790Z,100239.16
2023-05-10T07:13:56.022Z,100240.09
2023-05-10T07:16:23.358Z,100244.69
2023-05-10T07:18:51.595Z,100249.84
2023-05-10T07:21:18.828Z,100245.75
2023-05-10T07:23:46.117Z,100248.44
2023-05-10T07:26:13.254Z,100244.50
2023-05-10T07:28:40.480Z,100244.09
2023-05-10T07:31:07.704Z,100251.41
2023-05-10T07:33:34.849Z,100254.59
2023-05-10T07:36:01.976Z,100260.97
2023-05-10T07:38:29.096Z,100253.41
2023-05-10T07:40:56.236Z,100262.84
2023-05-10T07:43:23.561Z,100263.47
2023-05-10T07:45:50.760Z,100266.00
2023-05-10T07:48:17.916Z,100274.81
2023-05-10T07:50:45.049Z,100269.13
2023-05-10T07:53:12.199Z,100269.81
2023-05-10T07:55:39.491Z,100274.59
2023-05-10T07:58:07.150Z,100272.34
2023-05-10T08:00:35.624Z,100278.66
2023-05-10T08:03:02.964Z,100282.00
2023-05-10T08:05:30.498Z,100277.22
2023-05-10T08:07:57.676Z,100283.03
2023-05-10T08:10:25.727Z,100287.81
2023-05-10T08:12:52.870Z,100292.22
2023-05-10T08:15:20.120Z,100294.22
2023-05-10T08:17:47.364Z,100297.13
2023-05-10T08:20:17.628Z,100308.91
2023-05-10T08:22:44.859Z,100310.00
2023-05-10T08:25:12.297Z,100311.03
2023-05-10T08:27:39.469Z,100306.09
2023-05-10T08:30:07.699Z,100311.75
2023-05-10T08:32:35.911Z,100308.88
2023-05-10T08:35:03.598Z,100298.47
2023-05-10T08:37:31.303Z,100312.19
2023-05-10T08:39:58.485Z,100315.03
2023-05-10T08:42:31.172Z,100308.06
2023-05-10T08:45:00.212Z,100326.94
2023-05-10T08:47:28.867Z,100324.53
2023-05-10T08:49:58.041Z,100334.88
2023-05-10T08:52:28.374Z,100332.25
2023-05-10T08:54:55.951Z,100343.88
2023-05-10T08:57:23.581Z,100342.97
2023-05-10T08:59:50.841Z,100345.25
2023-05-10T09:02:20.543Z,100358.94
2023-05-10T09:04:47.878Z,100361.00
2023-05-10T09:07:15.328Z,100358.22
2023-05-10T09:09:42.926Z,100362.28
2023-05-10T09:12:12.477Z,100362.81
2023-05-10T09:14:40.452Z,100383.53
2023-05-10T09:17:07.916Z,100378.72
2023-05-10T09:19:35.161Z,100382.78
2023-05-10T09:22:03.353Z,100383.16
2023-05-10T09:24:31.538Z,100390.66
2023-05-10T09:27:01.564Z,100393.25
2023-05-10T09:29:43.642Z,100388.56
2023-05-10T09:32:10.803Z,100389.06
2023-05-10T09:34:40.924Z,100393.81
2023-05-10T09:37:09.156Z,100394.72
2023-05-10T09:39:38.600Z,100404.34
2023-05-10T09:42:08.804Z,100400.44
2023-05-10T09:44:37.041Z,100405.78
2023-05-10T09:47:04.758Z,100402.66
2023-05-10T09:49:31.953Z,100406.34
2023-05-10T09:52:08.545Z,100404.09
2023-05-10T09:54:36.179Z,100411.88
2023-05-10T09:57:03.448Z,100411.34
2023-05-10T09:59:31.276Z,100406.94
2023-05-10T10:02:00.615Z,100412.63
2023-05-10T10:04:28.948Z,100426.50
2023-05-10T10:07:04.788Z,100417.72
2023-05-10T10:09:33.479Z,100424.06
2023-05-10T10:12:03.040Z,100435.59
2023-05-10T10:14:30.908Z,100431.91
2023-05-10T10:17:06.640Z,100435.59
2023-05-10T10:19:38.822Z,100436.34
2023-05-10T10:22:06.991Z,100441.75
2023-05-10T10:24:34.742Z,100444.19
2023-05-10T10:27:20.517Z,100446.63
2023-05-10T10:30:07.556Z,100443.13
2023-05-10T10:32:53.346Z,100439.81
2023-05-10T10:35:20.859Z,100448.38
2023-05-10T10:37:51.658Z,100447.69
2023-05-10T10:40:26.825Z,100450.91
2023-05-10T10:42:55.173Z,100456.28
2023-05-10T10:45:23.988Z,100458.97
2023-05-10T10:48:24.082Z,100462.81
2023-05-10T10:50:58.992Z,100458.81
2023-05-10T10:53:30.012Z,100462.59
2023-05-10T10:56:11.234Z,100454.44
2023-05-10T10:58:40.450Z,100461.22
2023-05-10T11:01:37.694Z,100464.31
2023-05-10T11:04:05.041Z,100465.53
2023-05-10T11:06:36.768Z,100468.03
2023-05-10T11:09:13.279Z,100464.97
2023-05-10T11:11:53.471Z,100458.81
2023-05-10T11:14:23.482Z,100464.56
2023-05-10T11:16:51.571Z,100465.78
2023-05-10T11:19:20.886Z,100465.09
2023-05-10T11:22:11.953Z,100466.56
2023-05-10T11:24:39.127Z,100460.06
2023-05-10T11:27:09.365Z,100472.22
2023-05-10T11:29:36.501Z,100482.91
2023-05-10T11:32:09.059Z,100488.56
2023-05-10T11:34:36.205Z,100494.47
2023-05-10T11:37:03.458Z,100496.75
2023-05-10T11:39:32.892Z,100502.97
2023-05-10T11:42:01.056Z,100503.91
2023-05-10T11:44:33.447Z,100504.09
2023-05-10T11:47:02.655Z,100515.53
2023-05-10T11:49:29.963Z,100516.19
2023-05-10T11:52:11.944Z,100509.31
2023-05-10T11:54:45.517Z,100507.38
2023-05-10T11:57:12.712Z,100519.97
2023-05-10T11:59:41.730Z,100519.47
2023-05-10T12:02:11.382Z,100516.41
2023-05-10T12:04:39.163Z,100511.84
2023-05-10T12:07:06.729Z,100519.06
2023-05-10T12:09:43.346Z,100523.34
2023-05-10T12:12:11.640Z,100524.09
2023-05-10T12:14:38.824Z,100531.94
2023-05-10T12:17:05.998Z,100525.53
2023-05-10T12:19:40.119Z,100530.88
2023-05-10T12:22:07.461Z,100527.13
2023-05-10T12:24:37.154Z,100532.94
2023-05-10T12:27:09.614Z,100530.34
2023-05-10T12:29:37.435Z,100531.81
2023-05-10T12:32:04.879Z,100544.16
2023-05-10T12:34:36.976Z,100535.94
2023-05-10T12:37:05.011Z,100533.59
2023-05-10T12:39:44.019Z,100537.09
2023-05-10T12:42:11.924Z,100530.25
2023-05-10T12:44:40.739Z,100536.56
2023-05-10T12:47:08.361Z,100540.19
2023-05-10T12:49:35.603Z,100544.28
2023-05-10T12:52:02.854Z,100548.53
2023-05-10T12:54:30.007Z,100545.47
2023-05-10T12:56:57.158Z,100550.47
2023-05-10T12:59:24.330Z,100542.91
2023-05-10T13:01:51.457Z,100547.25
2023-05-10T13:04:18.616Z,100545.44
2023-05-10T13:06:45.817Z,100542.38
2023-05-10T13:09:12.993Z,100552.06
2023-05-10T13:11:40.479Z,100552.84
2023-05-10T13:14:07.936Z,100552.81
2023-05-10T13:16:35.230Z,100549.72
2023-05-10T13:19:02.441Z,100548.53
2023-05-10T13:21:29.665Z,100554.13
2023-05-10T13:23:56.834Z,100549.34
2023-05-10T13:26:24.020Z,100549.88
2023-05-10T13:28:52.509Z,100553.66
2023-05-10T13:31:19.977Z,100547.69
2023-05-10T13:33:47.156Z,100546.66
2023-05-10T13:36:14.302Z,100554.31
2023-05-10T13:38:41.468Z,100559.81
2023-05-10T13:41:08.677Z,100558.09
2023-05-10T13:43:36.968Z,100555.00
2023-05-10T13:46:04.254Z,100556.50
2023-05-10T13:48:31.469Z,100558.75
2023-05-10T13:50:58.692Z,100552.53
2023-05-10T13:53:25.887Z,100554.13
2023-05-10T13:55:53.071Z,100554.91
2023-05-10T13:58:20.255Z,100551.72
2023-05-10T14:00:47.425Z,100555.56
2023-05-10T14:03:14.639Z,100564.38
2023-05-10T14:05:41.911Z,100559.91
2023-05-10T14:08:10.346Z,100550.09
2023-05-10T14:10:37.877Z,100552.06
2023-05-10T14:13:05.070Z,100556.09
2023-05-10T14:15:32.265Z,100542.97
2023-05-10T14:17:59.495Z,100548.78
2023-05-10T14:20:27.134Z,100562.31
2023-05-10T14:22:54.301Z,100563.00
2023-05-10T14:25:21.722Z,100556.50
2023-05-10T14:27:48.926Z,100553.06
2023-05-10T14:30:16.129Z,100552.13
2023-05-10T14:32:43.427Z,100554.91
2023-05-10T14:35:13.107Z,100555.66
2023-05-10T14:37:40.799Z,100560.31
2023-05-10T14:40:10.254Z,100554.97
2023-05-10T14:42:37.557Z,100551.13
2023-05-10T14:45:05.686Z,100542.91
2023-05-10T14:47:32.909Z,100551.47
2023-05-10T14:50:00.169Z,100548.81
2023-05-10T14:52:27.798Z,100550.00
2023-05-10T14:54:54.972Z,100554.88
2023-05-10T14:57:22.146Z,100551.72
2023-05-10T14:59:49.310Z,100561.66
2023-05-10T15:02:17.201Z,100556.25
2023-05-10T15:04:44.845Z,100555.59
2023-05-10T15:07:15.309Z,100561.72
2023-05-10T15:09:42.604Z,100566.09
2023-05-10T15:12:09.791Z,100564.16
2023-05-10T15:14:37.625Z,100562.59
2023-05-10T15:17:07.950Z,100564.38
2023-05-10T15:19:35.194Z,100568.47
2023-05-10T15:22:03.195Z,100563.81
2023-05-10T15:24:31.677Z,100565.00
2023-05-10T15:26:58.876Z,100565.94
2023-05-10T15:29:26.048Z,100575.00
2023-05-10T15:31:53.602Z,100567.00
2023-05-10T15:34:21.069Z,100572.50
2023-05-10T15:36:48.285Z,100570.22
2023-05-10T15:39:15.480Z,100574.38
2023-05-10T15:41:42.655Z,100577.94
2023-05-10T15:44:09.786Z,100581.69
2023-05-10T15:46:38.785Z,100580.97
2023-05-10T15:49:06.729Z,100586.84
2023-05-10T15:51:35.909Z,100589.78
2023-05-10T15:54:07.517Z,100597.16
2023-05-10T15:56:35.872Z,100599.97
2023-05-10T15:59:03.726Z,100610.72
2023-05-10T16:01:32.522Z,100604.13
2023-05-10T16:04:00.932Z,100609.44
2023-05-10T16:06:28.260Z,100606.03
2023-05-10T16:08:55.433Z,100618.47
2023-05-10T16:11:22.719Z,100611.53
2023-05-10T16:13:50.016Z,100608.53
2023-05-10T16:16:17.305Z,100620.50
2023-05-10T16:18:44.652Z,100619.59
2023-05-10T16:21:11.950Z,100627.72
2023-05-10T16:23:39.697Z,100626.81
2023-05-10T16:26:07.510Z,100624.69
2023-05-10T16:28:35.158Z,100631.03
2023-05-10T16:31:02.389Z,100636.56
2023-05-10T16:33:29.629Z,100633.16
2023-05-10T16:35:56.886Z,100642.00
2023-05-10T16:38:24.034Z,100638.47
2023-05-10T16:40:51.181Z,100635.97
2023-05-10T16:43:19.200Z,100647.84
2023-05-10T16:45:46.338Z,100650.28
2023-05-10T16:48:13.478Z,100646.00
2023-05-10T16:50:44.412Z,100650.16
2023-05-10T16:53:11.749Z,100662.00
2023-05-10T16:55:39.009Z,100655.06
2023-05-10T16:58:06.235Z,100655.94
2023-05-10T17:00:33.829Z,100654.22
2023-05-10T17:03:01.236Z,100660.91
2023-05-10T17:05:29.418Z,100662.34
2023-05-10T17:07:56.587Z,100657.41
2023-05-10T17:10:23.777Z,100664.06
2023-05-10T17:12:51.325Z,100669.13
2023-05-10T17:15:19.462Z,100663.81
2023-05-10T17:17:47.718Z,100664.84
2023-05-10T17:20:14.946Z,100663.69
2023-05-10T17:22:42.114Z,100667.69
2023-05-10T17:25:09.607Z,100672.66
2023-05-10T17:27:37.010Z,100673.41
2023-05-10T17:30:04.857Z,100683.47
2023-05-10T17:32:32.172Z,100681.56
2023-05-10T17:34:59.418Z,100680.44
2023-05-10T17:37:26.577Z,100676.28
2023-05-10T17:39:53.751Z,100677.66
2023-05-10T17:42:21.079Z,100680.72
2023-05-10T17:44:48.236Z,100678.91
2023-05-10T17:47:15.510Z,100677.28
2023-05-10T17:49:42.702Z,100680.88
2023-05-10T17:52:09.919Z,100689.97
2023-05-10T17:54:37.080Z,100684.88
2023-05-10T17:57:04.280Z,100688.56
2023-05-10T17:59:31.458Z,100689.00
2023-05-10T18:01:58.635Z,100684.34
2023-05-10T18:04:26.122Z,100697.81
2023-05-10T18:07:00.947Z,100683.34
2023-05-10T18:09:28.713Z,100687.56
2023-05-10T18:11:55.908Z,100690.06
2023-05-10T18:14:38.997Z,100688.34
2023-05-10T18:17:07.835Z,100692.59
2023-05-10T18:19:35.339Z,100690.13
2023-05-10T18:22:02.719Z,100690.16
2023-05-10T18:24:40.215Z,100690.16
2023-05-10T18:27:10.572Z,100690.03
2023-05-10T18:29:37.864Z,100697.81
2023-05-10T18:32:05.481Z,100703.00
2023-05-10T18:34:32.678Z,100701.13
2023-05-10T18:37:00.052Z,100709.44
2023-05-10T18:39:27.326Z,100711.34
2023-05-10T18:41:54.568Z,100712.03
2023-05-10T18:44:23.209Z,100717.31
2023-05-10T18:46:54.050Z,100717.28
2023-05-10T18:49:21.365Z,100720.50
2023-05-10T18:51:48.513Z,100707.72
2023-05-10T18:54:15.747Z,100711.56
2023-05-10T18:56:45.095Z,100725.88
2023-05-10T18:59:12.871Z,100723.25
2023-05-10T19:01:43.334Z,100722.91
2023-05-10T19:04:10.645Z,100730.63
2023-05-10T19:06:37.925Z,100731.19
2023-05-10T19:09:05.101Z,100733.16
2023-05-10T19:11:34.258Z,100731.75
2023-05-10T19:14:02.327Z,100729.44
2023-05-10T19:16:30.423Z,100732.63
2023-05-10T19:18:57.856Z,100741.28
2023-05-10T19:21:25.283Z,100743.69
2023-05-10T19:23:53.645Z,100739.31
2023-05-10T19:26:21.738Z,100743.94
2023-05-10T19:28:52.051Z,100743.69
2023-05-10T19:31:21.282Z,100748.47
2023-05-10T19:33:49.101Z,100756.28
2023-05-10T19:36:16.529Z,100754.09
2023-05-10T19:38:43.707Z,100751.81
2023-05-10T19:41:11.601Z,100758.50
2023-05-10T19:43:39.600Z,100750.72
2023-05-10T19:46:06.958Z,100755.97
2023-05-10T19:48:34.155Z,100755.06
2023-05-10T19:51:03.757Z,100760.78
2023-05-10T19:53:32.371Z,100758.19
2023-05-10T19:56:05.211Z,100761.66
2023-05-10T19:58:33.871Z,100765.03
2023-05-10T20:01:01.598Z,100764.94
2023-05-10T20:03:29.208Z,100766.59
2023-05-10T20:05:56.459Z,100764.09
2023-05-10T20:08:24.417Z,100771.44
2023-05-10T20:10:51.572Z,100767.50
2023-05-10T20:13:18.692Z,100766.47
2023-05-10T20:15:46.571Z,100765.47
2023-05-10T20:18:13.808Z,100768.94
2023-05-10T20:20:41.105Z,100775.53
2023-05-10T20:23:08.304Z,100773.31
2023-05-10T20:25:35.562Z,100772.97
2023-05-10T20:28:03.667Z,100769.66
2023-05-10T20:30:30.937Z,100770.44
2023-05-10T20:32:58.257Z,100774.13
2023-05-10T20:35:25.550Z,100767.50
2023-05-10T20:37:52.779Z,100769.22
2023-05-10T20:40:20.289Z,100769.34
2023-05-10T20:42:47.757Z,100769.81
2023-05-10T20:45:15.717Z,100777.09
2023-05-10T20:47:43.006Z,100775.63
2023-05-10T20:50:11.623Z,100775.72
2023-05-10T20:52:38.847Z,100772.09
2023-05-10T20:55:06.777Z,100771.69
2023-05-10T20:57:33.977Z,100770.09
2023-05-10T21:00:01.148Z,100773.19
2023-05-10T21:02:28.374Z,100777.50
2023-05-10T21:04:57.752Z,100775.53
2023-05-10T21:07:25.428Z,100784.53
2023-05-10T21:09:52.583Z,100782.81
2023-05-10T21:12:19.833Z,100789.16
2023-05-10T21:14:47.733Z,100779.75
2023-05-10T21:17:14.904Z,100789.94
2023-05-10T21:19:43.874Z,100783.84
2023-05-10T21:22:11.090Z,100787.22
2023-05-10T21:24:38.478Z,100784.03
2023-05-10T21:27:07.732Z,100782.34
2023-05-10T21:29:34.983Z,100785.38
2023-05-10T21:32:02.493Z,100782.34
2023-05-10T21:34:30.113Z,100773.72
2023-05-10T21:36:57.295Z,100777.16
2023-05-10T21:39:24.471Z,100785.78
2023-05-10T21:41:51.681Z,100788.59
2023-05-10T21:44:18.920Z,100792.56
2023-05-10T21:46:46.070Z,100788.97
2023-05-10T21:49:13.222Z,100785.47
2023-05-10T21:51:40.373Z,100795.34
2023-05-10T21:54:07.676Z,100790.81
2023-05-10T21:56:34.845Z,100790.03
2023-05-10T21:59:02.012Z,100799.97
2023-05-10T22:01:29.161Z,100793.53
2023-05-10T22:03:56.419Z,100802.75
2023-05-10T22:06:24.123Z,100797.97
2023-05-10T22:08:51.310Z,100796.94
2023-05-10T22:11:18.501Z,100801.22
2023-05-10T22:13:45.664Z,100795.44
2023-05-10T22:16:13.031Z,100807.13
2023-05-10T22:18:40.313Z,100799.69
2023-05-10T22:21:10.279Z,100794.59
2023-05-10T22:23:37.502Z,100800.88
2023-05-10T22:26:04.764Z,100804.16
2023-05-10T22:28:31.924Z,100809.09
2023-05-10T22:30:59.213Z,100812.44
2023-05-10T22:33:26.370Z,100803.13
2023-05-10T22:35:53.589Z,100808.03
2023-05-10T22:38:20.738Z,100805.69
2023-05-10T22:40:47.952Z,100804.06
2023-05-10T22:43:16.920Z,100808.13
2023-05-10T22:45:44.128Z,100807.41
2023-05-10T22:48:11.325Z,100813.19
2023-05-10T22:50:38.551Z,100813.56
2023-05-10T22:53:06.645Z,100816.59
2023-05-10T22:55:33.974Z,100811.09
2023-05-10T22:58:01.410Z,100815.72
2023-05-10T23:00:28.556Z,100814.50
2023-05-10T23:02:55.856Z,100821.13
2023-05-10T23:05:23.048Z,100824.31
2023-05-10T23:07:53.210Z,100813.47
2023-05-10T23:10:20.636Z,100819.13
2023-05-10T23:12:48.088Z,100815.31
2023-05-10T23:15:15.359Z,100814.06
2023-05-10T23:17:42.622Z,100825.19
2023-05-10T23:20:10.847Z,100826.13
2023-05-10T23:22:38.115Z,100832.22
2023-05-10T23:25:05.962Z,100824.63
2023-05-10T23:27:33.257Z,100826.47
2023-05-10T23:30:00.588Z,100827.34
2023-05-10T23:32:27.780Z,100827.75
2023-05-10T23:34:55.487Z,100833.78
2023-05-10T23:37:22.636Z,100832.72
2023-05-10T23:39:49.785Z,100830.31
2023-05-10T23:42:16.944Z,100842.22
2023-05-10T23:44:44.107Z,100827.75
2023-05-10T23:47:11.301Z,100831.00
2023-05-10T23:49:38.466Z,100830.78
2023-05-10T23:52:05.656Z,100830.56
2023-05-10T23:54:32.865Z,100831.69
2023-05-10T23:57:00.041Z,100835.16
2023-05-10T23:59:27.330Z,100839.44
